Terminal Aerodrome Forecast
Issued by NWS Upton, NY

Home | Current Version | Previous Version | Text Only | Print | Product List | Glossary On
Versions: 1 2 3 4 5 6 7 8 9 10 11 12 13 14 15 16 17 18 19 20 21 22 23 24 25 26 27 28 29 30 31 32 33 34 35 36 37 38 39 40 41 42 43
248
FTUS41 KOKX 290402 AAF
TAFISP
TAF AMD
KISP 290402Z 2904/2924 04007KT 6SM -RA BR BKN004 OVC020
     FM290600 01005KT 6SM BR SCT005 BKN020
      TEMPO 2906/2909 4SM BR BKN005
     FM291000 35008KT P6SM SCT025 BKN040
     FM291200 35012G18KT P6SM BKN050
     FM291500 34015G22KT P6SM SCT050 SCT250=

USA.gov is the U.S. government's official web portal to all federal, state and local government web resources and services.